sensor_id;sensor_type;location;lat;lon;timestamp;temperature;humidity
2539;DHT22;1280;49.760;9.664;2023-02-15T11:22:51;3.80;82.80
2539;DHT22;1280;49.760;9.664;2023-02-15T11:25:23;3.80;82.90
2539;DHT22;1280;49.760;9.664;2023-02-15T11:27:53;3.90;82.80
2539;DHT22;1280;49.760;9.664;2023-02-15T11:30:23;3.80;82.70
2539;DHT22;1280;49.760;9.664;2023-02-15T11:32:52;3.80;82.70
2539;DHT22;1280;49.760;9.664;2023-02-15T11:35:28;3.90;82.60
2539;DHT22;1280;49.760;9.664;2023-02-15T11:38:10;3.80;82.50
2539;DHT22;1280;49.760;9.664;2023-02-15T11:42:25;3.80;82.60
2539;DHT22;1280;49.760;9.664;2023-02-15T11:45:10;3.80;82.80
2539;DHT22;1280;49.760;9.664;2023-02-15T11:47:46;3.80;83.00
2539;DHT22;1280;49.760;9.664;2023-02-15T11:50:28;4.00;83.10
2539;DHT22;1280;49.760;9.664;2023-02-15T11:53:03;4.00;82.90
2539;DHT22;1280;49.760;9.664;2023-02-15T11:55:33;4.10;82.90
2539;DHT22;1280;49.760;9.664;2023-02-15T11:58:08;4.10;82.80
2539;DHT22;1280;49.760;9.664;2023-02-15T12:00:42;4.10;82.70
2539;DHT22;1280;49.760;9.664;2023-02-15T12:03:18;4.20;82.80
2539;DHT22;1280;49.760;9.664;2023-02-15T12:06:03;4.20;82.70
2539;DHT22;1280;49.760;9.664;2023-02-15T12:08:37;4.20;82.80
2539;DHT22;1280;49.760;9.664;2023-02-15T12:11:07;4.30;82.80
2539;DHT22;1280;49.760;9.664;2023-02-15T12:13:57;4.30;82.70
2539;DHT22;1280;49.760;9.664;2023-02-15T12:16:31;4.30;82.70
2539;DHT22;1280;49.760;9.664;2023-02-15T12:19:01;4.30;82.60
2539;DHT22;1280;49.760;9.664;2023-02-15T12:21:31;4.40;82.60
2539;DHT22;1280;49.760;9.664;2023-02-15T12:24:18;4.40;82.50
2539;DHT22;1280;49.760;9.664;2023-02-15T12:26:57;4.40;82.40
2539;DHT22;1280;49.760;9.664;2023-02-15T12:29:41;4.40;82.40
2539;DHT22;1280;49.760;9.664;2023-02-15T12:32:17;4.40;82.40
2539;DHT22;1280;49.760;9.664;2023-02-15T12:34:47;4.40;82.30
2539;DHT22;1280;49.760;9.664;2023-02-15T12:37:29;4.40;82.30
2539;DHT22;1280;49.760;9.664;2023-02-15T12:40:18;4.40;82.10
2539;DHT22;1280;49.760;9.664;2023-02-15T12:42:51;4.40;82.20
2539;DHT22;1280;49.760;9.664;2023-02-15T12:45:31;4.40;82.10
2539;DHT22;1280;49.760;9.664;2023-02-15T12:48:15;4.40;82.20
2539;DHT22;1280;49.760;9.664;2023-02-15T12:50:45;4.40;82.20
2539;DHT22;1280;49.760;9.664;2023-02-15T12:53:30;4.40;82.30
2539;DHT22;1280;49.760;9.664;2023-02-15T12:56:01;4.40;82.30
2539;DHT22;1280;49.760;9.664;2023-02-15T12:58:33;4.40;82.10
2539;DHT22;1280;49.760;9.664;2023-02-15T13:01:17;4.40;82.00
2539;DHT22;1280;49.760;9.664;2023-02-15T13:03:59;4.40;82.00
2539;DHT22;1280;49.760;9.664;2023-02-15T13:06:46;4.40;82.10
2539;DHT22;1280;49.760;9.664;2023-02-15T13:09:24;4.40;82.30
2539;DHT22;1280;49.760;9.664;2023-02-15T13:12:11;4.50;82.40
2539;DHT22;1280;49.760;9.664;2023-02-15T13:14:52;4.60;82.40
2539;DHT22;1280;49.760;9.664;2023-02-15T13:17:36;4.60;82.20
2539;DHT22;1280;49.760;9.664;2023-02-15T13:20:17;4.70;82.30
2539;DHT22;1280;49.760;9.664;2023-02-15T13:38:24;4.70;81.80
2539;DHT22;1280;49.760;9.664;2023-02-15T13:40:58;4.70;81.80
2539;DHT22;1280;49.760;9.664;2023-02-15T13:43:43;4.70;81.80
2539;DHT22;1280;49.760;9.664;2023-02-15T13:46:22;4.70;81.90
2539;DHT22;1280;49.760;9.664;2023-02-15T13:48:59;4.70;81.80
2539;DHT22;1280;49.760;9.664;2023-02-15T13:51:40;4.70;81.90
2539;DHT22;1280;49.760;9.664;2023-02-15T13:54:49;4.70;81.80
2539;DHT22;1280;49.760;9.664;2023-02-15T13:57:47;4.70;81.70
2539;DHT22;1280;49.760;9.664;2023-02-15T14:00:27;4.70;81.70
2539;DHT22;1280;49.760;9.664;2023-02-15T14:03:24;4.70;81.60
2539;DHT22;1280;49.760;9.664;2023-02-15T14:06:10;4.60;81.50
2539;DHT22;1280;49.760;9.664;2023-02-15T14:08:53;4.60;81.50
2539;DHT22;1280;49.760;9.664;2023-02-15T14:11:29;4.50;81.70
2539;DHT22;1280;49.760;9.664;2023-02-15T14:14:17;4.50;81.60
2539;DHT22;1280;49.760;9.664;2023-02-15T14:16:55;4.50;81.60
2539;DHT22;1280;49.760;9.664;2023-02-15T14:19:37;4.50;81.60
2539;DHT22;1280;49.760;9.664;2023-02-15T14:22:14;4.50;81.70
2539;DHT22;1280;49.760;9.664;2023-02-15T14:24:54;4.50;81.60
2539;DHT22;1280;49.760;9.664;2023-02-15T14:27:31;4.50;81.50
2539;DHT22;1280;49.760;9.664;2023-02-15T14:30:10;4.40;81.50
2539;DHT22;1280;49.760;9.664;2023-02-15T14:32:43;4.40;81.50
2539;DHT22;1280;49.760;9.664;2023-02-15T14:35:14;4.30;81.60
2539;DHT22;1280;49.760;9.664;2023-02-15T14:37:46;4.30;81.60
2539;DHT22;1280;49.760;9.664;2023-02-15T14:40:28;4.30;81.70
2539;DHT22;1280;49.760;9.664;2023-02-15T14:43:41;4.30;81.90
2539;DHT22;1280;49.760;9.664;2023-02-15T14:46:20;4.30;81.90
2539;DHT22;1280;49.760;9.664;2023-02-15T14:48:52;4.30;82.10
2539;DHT22;1280;49.760;9.664;2023-02-15T14:51:55;4.40;82.10
2539;DHT22;1280;49.760;9.664;2023-02-15T14:54:53;4.40;82.00
2539;DHT22;1280;49.760;9.664;2023-02-15T14:57:33;4.50;82.10
2539;DHT22;1280;49.760;9.664;2023-02-15T15:03:24;4.60;82.10
2539;DHT22;1280;49.760;9.664;2023-02-15T15:05:56;4.70;82.10
2539;DHT22;1280;49.760;9.664;2023-02-15T15:08:33;4.70;82.00
2539;DHT22;1280;49.760;9.664;2023-02-15T15:11:44;4.70;81.70
2539;DHT22;1280;49.760;9.664;2023-02-15T15:14:39;4.70;81.60
2539;DHT22;1280;49.760;9.664;2023-02-15T15:17:11;4.60;81.60
2539;DHT22;1280;49.760;9.664;2023-02-15T15:20:04;4.60;81.70
2539;DHT22;1280;49.760;9.664;2023-02-15T15:22:41;4.60;81.70
2539;DHT22;1280;49.760;9.664;2023-02-15T15:25:40;4.60;81.70
2539;DHT22;1280;49.760;9.664;2023-02-15T15:28:09;4.50;81.60
2539;DHT22;1280;49.760;9.664;2023-02-15T15:31:04;4.50;81.60
2539;DHT22;1280;49.760;9.664;2023-02-15T15:34:03;4.50;81.70
2539;DHT22;1280;49.760;9.664;2023-02-15T15:43:15;4.40;81.80
2539;DHT22;1280;49.760;9.664;2023-02-15T15:46:21;4.50;82.00
2539;DHT22;1280;49.760;9.664;2023-02-15T15:48:54;4.50;81.90
2539;DHT22;1280;49.760;9.664;2023-02-15T15:51:27;4.50;81.80
2539;DHT22;1280;49.760;9.664;2023-02-15T15:53:57;4.50;81.90
2539;DHT22;1280;49.760;9.664;2023-02-15T15:56:28;4.50;81.80
2539;DHT22;1280;49.760;9.664;2023-02-15T15:59:00;4.50;81.80
2539;DHT22;1280;49.760;9.664;2023-02-15T16:01:36;4.50;81.80
2539;DHT22;1280;49.760;9.664;2023-02-15T16:04:05;4.50;81.90
2539;DHT22;1280;49.760;9.664;2023-02-15T16:06:34;4.50;81.90
2539;DHT22;1280;49.760;9.664;2023-02-15T16:09:16;4.50;81.90
2539;DHT22;1280;49.760;9.664;2023-02-15T16:11:47;4.50;81.80
2539;DHT22;1280;49.760;9.664;2023-02-15T16:14:17;4.40;81.90
2539;DHT22;1280;49.760;9.664;2023-02-15T16:16:53;4.40;81.90
2539;DHT22;1280;49.760;9.664;2023-02-15T16:19:25;4.50;82.00
2539;DHT22;1280;49.760;9.664;2023-02-15T16:22:02;4.40;81.80
2539;DHT22;1280;49.760;9.664;2023-02-15T16:24:58;4.40;81.80
2539;DHT22;1280;49.760;9.664;2023-02-15T16:27:36;4.40;81.90
2539;DHT22;1280;49.760;9.664;2023-02-15T16:30:24;4.40;82.00
2539;DHT22;1280;49.760;9.664;2023-02-15T16:32:57;4.40;82.10
2539;DHT22;1280;49.760;9.664;2023-02-15T16:35:31;4.50;82.10
2539;DHT22;1280;49.760;9.664;2023-02-15T16:38:02;4.50;82.00
2539;DHT22;1280;49.760;9.664;2023-02-15T16:40:40;4.50;82.00
2539;DHT22;1280;49.760;9.664;2023-02-15T16:43:15;4.50;82.00
2539;DHT22;1280;49.760;9.664;2023-02-15T16:45:45;4.50;82.00
2539;DHT22;1280;49.760;9.664;2023-02-15T16:48:20;4.50;81.90
2539;DHT22;1280;49.760;9.664;2023-02-15T16:50:53;4.50;81.90
2539;DHT22;1280;49.760;9.664;2023-02-15T16:53:24;4.50;82.00
2539;DHT22;1280;49.760;9.664;2023-02-15T16:55:54;4.50;81.90
2539;DHT22;1280;49.760;9.664;2023-02-15T16:58:29;4.50;81.90
2539;DHT22;1280;49.760;9.664;2023-02-15T17:00:58;4.50;81.90
2539;DHT22;1280;49.760;9.664;2023-02-15T17:03:29;4.50;81.90
2539;DHT22;1280;49.760;9.664;2023-02-15T17:05:59;4.50;81.90
2539;DHT22;1280;49.760;9.664;2023-02-15T17:08:31;4.50;81.90
2539;DHT22;1280;49.760;9.664;2023-02-15T17:11:15;4.50;82.00
2539;DHT22;1280;49.760;9.664;2023-02-15T17:17:00;4.50;81.90
2539;DHT22;1280;49.760;9.664;2023-02-15T17:19:46;4.40;81.80
2539;DHT22;1280;49.760;9.664;2023-02-15T17:22:19;4.40;81.90
2539;DHT22;1280;49.760;9.664;2023-02-15T17:24:48;4.40;81.90
2539;DHT22;1280;49.760;9.664;2023-02-15T17:27:20;4.40;82.00
2539;DHT22;1280;49.760;9.664;2023-02-15T17:29:51;4.40;82.10
2539;DHT22;1280;49.760;9.664;2023-02-15T17:32:22;4.40;82.00
2539;DHT22;1280;49.760;9.664;2023-02-15T17:35:05;4.40;82.00
2539;DHT22;1280;49.760;9.664;2023-02-15T17:37:46;4.40;82.10
2539;DHT22;1280;49.760;9.664;2023-02-15T17:40:20;4.50;82.30
2539;DHT22;1280;49.760;9.664;2023-02-15T17:42:48;4.50;82.30
2539;DHT22;1280;49.760;9.664;2023-02-15T17:45:16;4.50;82.30
2539;DHT22;1280;49.760;9.664;2023-02-15T17:47:46;4.50;82.10
2539;DHT22;1280;49.760;9.664;2023-02-15T17:50:19;4.50;82.00
2539;DHT22;1280;49.760;9.664;2023-02-15T17:52:49;4.50;81.90
2539;DHT22;1280;49.760;9.664;2023-02-15T17:55:20;4.40;81.70
2539;DHT22;1280;49.760;9.664;2023-02-15T17:58:06;4.40;81.80
2539;DHT22;1280;49.760;9.664;2023-02-15T18:00:36;4.30;81.80
2539;DHT22;1280;49.760;9.664;2023-02-15T18:03:24;4.20;81.90
2539;DHT22;1280;49.760;9.664;2023-02-15T18:06:15;4.20;82.00
2539;DHT22;1280;49.760;9.664;2023-02-15T18:09:01;4.20;82.20
2539;DHT22;1280;49.760;9.664;2023-02-15T18:11:46;4.20;82.50
2539;DHT22;1280;49.760;9.664;2023-02-15T18:14:16;4.30;82.70
2539;DHT22;1280;49.760;9.664;2023-02-15T18:16:44;4.30;82.80
2539;DHT22;1280;49.760;9.664;2023-02-15T18:19:15;4.40;82.90
2539;DHT22;1280;49.760;9.664;2023-02-15T18:21:46;4.50;82.70
2539;DHT22;1280;49.760;9.664;2023-02-15T18:24:16;4.50;82.70
2539;DHT22;1280;49.760;9.664;2023-02-15T18:26:45;4.50;82.50
2539;DHT22;1280;49.760;9.664;2023-02-15T18:29:14;4.50;82.40
2539;DHT22;1280;49.760;9.664;2023-02-15T18:31:43;4.50;82.50
2539;DHT22;1280;49.760;9.664;2023-02-15T18:34:21;4.50;82.50
2539;DHT22;1280;49.760;9.664;2023-02-15T18:36:51;4.50;82.50
2539;DHT22;1280;49.760;9.664;2023-02-15T18:39:25;4.50;82.40
2539;DHT22;1280;49.760;9.664;2023-02-15T18:41:55;4.50;82.40
2539;DHT22;1280;49.760;9.664;2023-02-15T18:44:25;4.50;82.30
2539;DHT22;1280;49.760;9.664;2023-02-15T18:46:54;4.60;82.50
2539;DHT22;1280;49.760;9.664;2023-02-15T18:49:22;4.60;82.30
2539;DHT22;1280;49.760;9.664;2023-02-15T18:51:52;4.60;82.10
2539;DHT22;1280;49.760;9.664;2023-02-15T18:54:22;4.60;82.00
2539;DHT22;1280;49.760;9.664;2023-02-15T18:56:54;4.60;82.00
2539;DHT22;1280;49.760;9.664;2023-02-15T18:59:24;4.60;82.10
2539;DHT22;1280;49.760;9.664;2023-02-15T19:01:56;4.60;82.00
2539;DHT22;1280;49.760;9.664;2023-02-15T19:04:24;4.60;82.20
2539;DHT22;1280;49.760;9.664;2023-02-15T19:06:54;4.70;82.10
2539;DHT22;1280;49.760;9.664;2023-02-15T19:09:24;4.70;81.90
2539;DHT22;1280;49.760;9.664;2023-02-15T19:11:55;4.70;82.00
2539;DHT22;1280;49.760;9.664;2023-02-15T19:14:25;4.70;82.10
2539;DHT22;1280;49.760;9.664;2023-02-15T19:16:54;4.70;82.10
2539;DHT22;1280;49.760;9.664;2023-02-15T19:19:22;4.70;82.00
2539;DHT22;1280;49.760;9.664;2023-02-15T19:21:50;4.70;81.80
2539;DHT22;1280;49.760;9.664;2023-02-15T19:24:22;4.70;81.50
2539;DHT22;1280;49.760;9.664;2023-02-15T19:26:52;4.50;81.40
2539;DHT22;1280;49.760;9.664;2023-02-15T19:29:24;4.50;81.70
2539;DHT22;1280;49.760;9.664;2023-02-15T19:31:53;4.50;81.60
2539;DHT22;1280;49.760;9.664;2023-02-15T19:34:21;4.50;81.50
2539;DHT22;1280;49.760;9.664;2023-02-15T19:36:50;4.40;81.50
2539;DHT22;1280;49.760;9.664;2023-02-15T19:39:26;4.30;81.60
2539;DHT22;1280;49.760;9.664;2023-02-15T19:41:54;4.30;82.00
2539;DHT22;1280;49.760;9.664;2023-02-15T19:44:23;4.30;82.00
2539;DHT22;1280;49.760;9.664;2023-02-15T19:46:52;4.30;81.90
2539;DHT22;1280;49.760;9.664;2023-02-15T19:49:20;4.30;81.90
2539;DHT22;1280;49.760;9.664;2023-02-15T19:51:49;4.30;82.00
2539;DHT22;1280;49.760;9.664;2023-02-15T19:54:28;4.30;82.00
2539;DHT22;1280;49.760;9.664;2023-02-15T19:56:57;4.30;81.80
2539;DHT22;1280;49.760;9.664;2023-02-15T19:59:27;4.30;81.90
2539;DHT22;1280;49.760;9.664;2023-02-15T20:01:56;4.30;82.20
2539;DHT22;1280;49.760;9.664;2023-02-15T20:04:24;4.40;82.00
2539;DHT22;1280;49.760;9.664;2023-02-15T20:06:54;4.30;81.80
2539;DHT22;1280;49.760;9.664;2023-02-15T20:09:27;4.30;81.80
2539;DHT22;1280;49.760;9.664;2023-02-15T20:11:56;4.30;81.80
2539;DHT22;1280;49.760;9.664;2023-02-15T20:14:24;4.30;81.60
2539;DHT22;1280;49.760;9.664;2023-02-15T20:16:52;4.20;81.30
2539;DHT22;1280;49.760;9.664;2023-02-15T20:19:20;4.10;81.40
2539;DHT22;1280;49.760;9.664;2023-02-15T20:21:48;4.00;81.70
2539;DHT22;1280;49.760;9.664;2023-02-15T20:24:23;4.00;81.90
2539;DHT22;1280;49.760;9.664;2023-02-15T20:26:54;4.00;82.00
2539;DHT22;1280;49.760;9.664;2023-02-15T20:29:22;4.10;82.10
2539;DHT22;1280;49.760;9.664;2023-02-15T20:31:50;4.10;82.10
2539;DHT22;1280;49.760;9.664;2023-02-15T20:34:21;4.20;82.30
2539;DHT22;1280;49.760;9.664;2023-02-15T20:36:49;4.20;82.30
2539;DHT22;1280;49.760;9.664;2023-02-15T20:39:18;4.30;82.30
2539;DHT22;1280;49.760;9.664;2023-02-15T20:41:46;4.40;82.30
2539;DHT22;1280;49.760;9.664;2023-02-15T20:44:22;4.40;82.10
2539;DHT22;1280;49.760;9.664;2023-02-15T20:46:52;4.50;82.30
2539;DHT22;1280;49.760;9.664;2023-02-15T20:49:20;4.50;82.10
2539;DHT22;1280;49.760;9.664;2023-02-15T20:51:51;4.50;82.30
2539;DHT22;1280;49.760;9.664;2023-02-15T20:54:20;4.60;82.10
2539;DHT22;1280;49.760;9.664;2023-02-15T20:56:49;4.60;81.90
2539;DHT22;1280;49.760;9.664;2023-02-15T20:59:22;4.50;81.80
2539;DHT22;1280;49.760;9.664;2023-02-15T21:01:54;4.60;81.90
2539;DHT22;1280;49.760;9.664;2023-02-15T21:04:27;4.60;82.00
2539;DHT22;1280;49.760;9.664;2023-02-15T21:06:56;4.60;81.90
2539;DHT22;1280;49.760;9.664;2023-02-15T21:09:24;4.60;82.00
2539;DHT22;1280;49.760;9.664;2023-02-15T21:11:55;4.60;81.90
2539;DHT22;1280;49.760;9.664;2023-02-15T21:14:27;4.60;81.80
2539;DHT22;1280;49.760;9.664;2023-02-15T21:16:55;4.60;81.60
2539;DHT22;1280;49.760;9.664;2023-02-15T21:19:23;4.50;81.30
2539;DHT22;1280;49.760;9.664;2023-02-15T21:21:52;4.40;81.50
2539;DHT22;1280;49.760;9.664;2023-02-15T21:24:22;4.40;81.70
2539;DHT22;1280;49.760;9.664;2023-02-15T21:26:51;4.40;81.80
2539;DHT22;1280;49.760;9.664;2023-02-15T21:29:21;4.40;81.90
2539;DHT22;1280;49.760;9.664;2023-02-15T21:31:51;4.50;81.90
2539;DHT22;1280;49.760;9.664;2023-02-15T21:34:19;4.50;81.90
2539;DHT22;1280;49.760;9.664;2023-02-15T21:36:48;4.50;81.80
2539;DHT22;1280;49.760;9.664;2023-02-15T21:39:20;4.50;81.80
2539;DHT22;1280;49.760;9.664;2023-02-15T21:41:51;4.50;81.90
2539;DHT22;1280;49.760;9.664;2023-02-15T21:44:37;4.50;81.90
2539;DHT22;1280;49.760;9.664;2023-02-15T21:47:26;4.50;81.90
2539;DHT22;1280;49.760;9.664;2023-02-15T21:50:15;4.60;81.90
2539;DHT22;1280;49.760;9.664;2023-02-15T21:53:02;4.60;81.70
2539;DHT22;1280;49.760;9.664;2023-02-15T21:55:31;4.50;81.70
2539;DHT22;1280;49.760;9.664;2023-02-15T21:58:00;4.50;81.70
2539;DHT22;1280;49.760;9.664;2023-02-15T22:00:29;4.50;81.60
2539;DHT22;1280;49.760;9.664;2023-02-15T22:02:59;4.50;81.70
2539;DHT22;1280;49.760;9.664;2023-02-15T22:05:31;4.50;81.70
2539;DHT22;1280;49.760;9.664;2023-02-15T22:08:00;4.50;81.80
2539;DHT22;1280;49.760;9.664;2023-02-15T22:10:30;4.50;81.70
2539;DHT22;1280;49.760;9.664;2023-02-15T22:12:59;4.50;81.70
2539;DHT22;1280;49.760;9.664;2023-02-15T22:15:31;4.40;81.70
2539;DHT22;1280;49.760;9.664;2023-02-15T22:18:02;4.40;81.60
2539;DHT22;1280;49.760;9.664;2023-02-15T22:20:31;4.40;81.70
2539;DHT22;1280;49.760;9.664;2023-02-15T22:22:59;4.30;81.70
2539;DHT22;1280;49.760;9.664;2023-02-15T22:25:27;4.30;81.80
2539;DHT22;1280;49.760;9.664;2023-02-15T22:27:55;4.30;81.90
2539;DHT22;1280;49.760;9.664;2023-02-15T22:30:25;4.30;81.90
2539;DHT22;1280;49.760;9.664;2023-02-15T22:32:54;4.30;81.90
2539;DHT22;1280;49.760;9.664;2023-02-15T22:35:25;4.30;81.90
2539;DHT22;1280;49.760;9.664;2023-02-15T22:37:55;4.30;82.00
2539;DHT22;1280;49.760;9.664;2023-02-15T22:40:26;4.30;82.00
2539;DHT22;1280;49.760;9.664;2023-02-15T22:42:57;4.30;82.00
2539;DHT22;1280;49.760;9.664;2023-02-15T22:45:26;4.20;81.80
2539;DHT22;1280;49.760;9.664;2023-02-15T22:47:57;4.20;81.60
2539;DHT22;1280;49.760;9.664;2023-02-15T22:50:29;4.10;81.80
2539;DHT22;1280;49.760;9.664;2023-02-15T22:52:58;4.10;82.10
2539;DHT22;1280;49.760;9.664;2023-02-15T22:55:29;4.20;82.20
2539;DHT22;1280;49.760;9.664;2023-02-15T22:57:57;4.20;82.00
2539;DHT22;1280;49.760;9.664;2023-02-15T23:00:28;4.10;81.90
2539;DHT22;1280;49.760;9.664;2023-02-15T23:02:56;4.10;81.90
2539;DHT22;1280;49.760;9.664;2023-02-15T23:05:28;4.10;81.90
2539;DHT22;1280;49.760;9.664;2023-02-15T23:07:56;4.10;82.10
2539;DHT22;1280;49.760;9.664;2023-02-15T23:10:26;4.10;82.20
2539;DHT22;1280;49.760;9.664;2023-02-15T23:12:57;4.10;82.20
2539;DHT22;1280;49.760;9.664;2023-02-15T23:15:44;4.20;82.20
2539;DHT22;1280;49.760;9.664;2023-02-15T23:18:16;4.20;82.20
2539;DHT22;1280;49.760;9.664;2023-02-15T23:20:48;4.20;82.00
2539;DHT22;1280;49.760;9.664;2023-02-15T23:23:26;4.10;81.80
2539;DHT22;1280;49.760;9.664;2023-02-15T23:25:55;4.10;82.00
2539;DHT22;1280;49.760;9.664;2023-02-15T23:28:26;4.10;82.10
2539;DHT22;1280;49.760;9.664;2023-02-15T23:30:55;4.10;82.10
2539;DHT22;1280;49.760;9.664;2023-02-15T23:33:27;4.10;82.20
2539;DHT22;1280;49.760;9.664;2023-02-15T23:35:58;4.10;82.10
2539;DHT22;1280;49.760;9.664;2023-02-15T23:38:28;4.10;82.10
2539;DHT22;1280;49.760;9.664;2023-02-15T23:40:58;4.10;81.90
2539;DHT22;1280;49.760;9.664;2023-02-15T23:43:46;4.00;82.00
2539;DHT22;1280;49.760;9.664;2023-02-15T23:46:25;4.00;82.20
2539;DHT22;1280;49.760;9.664;2023-02-15T23:48:54;4.00;82.20
2539;DHT22;1280;49.760;9.664;2023-02-15T23:51:29;4.00;82.20
2539;DHT22;1280;49.760;9.664;2023-02-15T23:53:57;4.10;82.20
2539;DHT22;1280;49.760;9.664;2023-02-15T23:56:25;4.10;82.10
2539;DHT22;1280;49.760;9.664;2023-02-15T23:58:53;4.00;82.00
